Time;durP1;ratioP1;P1;durP2;ratioP2;P2;SDS_P1;SDS_P2;PMS_P1;PMS_P2;Temp;Humidity;BMP_temperature;BMP_pressure;BME280_temperature;BME280_humidity;BME280_pressure;Samples;Min_cycle;Max_cycle;Signal;HPM_P1;HPM_P2
2021/10/14 00:02:17;;;;;;;13.57;4.10;;;12.50;99.90;;;;;;5083677;28;20053;-67
2021/10/14 00:04:43;;;;;;;12.25;4.18;;;12.50;99.90;;;;;;5085400;28;20044;-67
2021/10/14 00:07:08;;;;;;;10.00;3.88;;;12.50;99.90;;;;;;5087381;28;20201;-67
2021/10/14 00:09:34;;;;;;;10.77;3.97;;;12.60;99.90;;;;;;5086413;28;20078;-67
2021/10/14 00:12:00;;;;;;;15.35;4.57;;;12.50;99.90;;;;;;5087319;28;20040;-67
2021/10/14 00:14:26;;;;;;;7.85;3.58;;;12.50;99.90;;;;;;5087593;28;20048;-67
2021/10/14 00:16:52;;;;;;;11.00;4.15;;;12.50;99.90;;;;;;5087945;28;20040;-67
2021/10/14 00:19:18;;;;;;;10.60;3.50;;;12.50;99.90;;;;;;5087156;28;20539;-67
2021/10/14 00:21:44;;;;;;;9.90;3.40;;;12.50;99.90;;;;;;5091174;28;20040;-67
2021/10/14 00:24:09;;;;;;;13.32;3.50;;;12.50;99.90;;;;;;5090921;28;20041;-67
2021/10/14 00:26:36;;;;;;;16.30;3.95;;;12.50;99.90;;;;;;5086567;28;20075;-67
2021/10/14 00:29:02;;;;;;;11.40;3.42;;;12.50;99.90;;;;;;5086768;28;20037;-67
2021/10/14 00:31:28;;;;;;;8.50;4.00;;;12.50;99.90;;;;;;5086158;28;20066;-67
2021/10/14 00:33:54;;;;;;;13.40;4.28;;;12.50;99.90;;;;;;5069120;28;20094;-67
2021/10/14 00:36:21;;;;;;;16.10;3.55;;;12.50;99.90;;;;;;5086625;28;20032;-67
2021/10/14 00:38:47;;;;;;;11.50;4.10;;;12.60;99.90;;;;;;5087028;28;20049;-67
2021/10/14 00:41:15;;;;;;;14.93;4.13;;;12.50;99.90;;;;;;5086749;28;20032;-67
2021/10/14 00:43:40;;;;;;;13.25;4.25;;;12.50;99.90;;;;;;5102809;28;20113;-66
2021/10/14 00:46:16;;;;;;;17.45;3.88;;;12.50;99.90;;;;;;5081365;28;20057;-67
2021/10/14 00:48:42;;;;;;;12.15;3.60;;;12.50;99.90;;;;;;5103284;28;20044;-67
2021/10/14 00:51:09;;;;;;;14.73;3.35;;;12.50;99.90;;;;;;5102970;28;20121;-67
2021/10/14 00:53:38;;;;;;;9.98;3.35;;;12.50;99.90;;;;;;5099062;28;20554;-66
2021/10/14 00:56:08;;;;;;;12.98;3.70;;;12.40;99.90;;;;;;5099600;28;20079;-66
2021/10/14 00:58:35;;;;;;;16.33;3.85;;;12.50;99.90;;;;;;5099700;28;20189;-66
2021/10/14 01:01:03;;;;;;;10.52;3.88;;;12.40;99.90;;;;;;5097619;28;20044;-66
2021/10/14 01:03:29;;;;;;;13.13;4.45;;;12.30;99.90;;;;;;5100909;28;20055;-66
2021/10/14 01:05:56;;;;;;;19.67;4.15;;;12.30;99.90;;;;;;5095922;28;20036;-67
2021/10/14 01:08:22;;;;;;;11.43;3.05;;;12.30;99.90;;;;;;5102964;28;20044;-68
2021/10/14 01:10:47;;;;;;;11.80;3.15;;;12.30;99.90;;;;;;5094814;28;20094;-66
2021/10/14 01:13:13;;;;;;;11.05;3.63;;;12.20;99.90;;;;;;5102746;28;20051;-66
2021/10/14 01:15:39;;;;;;;10.38;3.50;;;12.30;99.90;;;;;;5095034;28;20040;-66
2021/10/14 01:18:05;;;;;;;10.05;3.60;;;12.30;99.90;;;;;;5102032;28;20040;-67
2021/10/14 01:20:31;;;;;;;9.35;3.40;;;12.30;99.90;;;;;;5094281;28;20048;-67
2021/10/14 01:22:57;;;;;;;11.25;3.17;;;12.30;99.90;;;;;;5100547;28;20048;-66
2021/10/14 01:25:24;;;;;;;7.28;3.55;;;12.30;99.90;;;;;;5074383;28;20051;-66
2021/10/14 01:27:51;;;;;;;17.00;3.42;;;12.30;99.90;;;;;;5100333;28;20056;-67
2021/10/14 01:30:17;;;;;;;10.27;3.53;;;12.30;99.90;;;;;;5092507;28;20061;-67
2021/10/14 01:32:46;;;;;;;12.60;3.35;;;12.30;99.90;;;;;;5100474;28;20040;-66
2021/10/14 01:35:12;;;;;;;14.15;4.22;;;12.30;99.90;;;;;;5092428;28;20123;-66
2021/10/14 01:37:38;;;;;;;7.35;2.65;;;12.30;99.90;;;;;;5099915;28;20059;-66
2021/10/14 01:40:05;;;;;;;11.18;4.22;;;12.30;99.90;;;;;;5091813;28;20076;-66
2021/10/14 01:42:31;;;;;;;9.15;2.95;;;12.30;99.90;;;;;;5099540;28;20287;-66
2021/10/14 01:45:00;;;;;;;17.80;3.15;;;12.30;99.90;;;;;;5093129;28;20195;-66
2021/10/14 01:47:51;;;;;;;8.63;3.13;;;12.30;99.90;;;;;;5096397;28;20063;-66
2021/10/14 01:50:16;;;;;;;8.50;3.55;;;12.30;99.90;;;;;;5072088;28;20045;-66
2021/10/14 01:52:42;;;;;;;13.45;2.88;;;12.30;99.90;;;;;;5077573;28;20062;-66
2021/10/14 01:55:08;;;;;;;12.85;2.92;;;12.30;99.90;;;;;;5084072;28;20044;-66
2021/10/14 01:57:34;;;;;;;8.25;2.67;;;12.30;99.90;;;;;;5077400;28;20119;-67
2021/10/14 02:00:00;;;;;;;11.02;2.97;;;12.30;99.90;;;;;;5084218;28;20074;-66
2021/10/14 02:02:25;;;;;;;10.18;3.22;;;12.30;99.90;;;;;;5072717;28;20043;-66
2021/10/14 02:04:51;;;;;;;10.07;3.22;;;12.20;99.90;;;;;;5084139;28;20040;-66
2021/10/14 02:07:17;;;;;;;8.32;3.28;;;12.20;99.90;;;;;;5077140;28;20049;-66
2021/10/14 02:09:42;;;;;;;10.80;2.83;;;12.20;99.90;;;;;;5081749;28;20140;-66
2021/10/14 02:12:08;;;;;;;10.70;3.10;;;12.20;99.90;;;;;;5077469;28;20036;-66
2021/10/14 02:14:33;;;;;;;6.85;2.97;;;12.10;99.90;;;;;;5069053;28;20112;-67
2021/10/14 02:16:59;;;;;;;7.38;3.08;;;12.40;99.90;;;;;;5080615;28;20040;-66
2021/10/14 02:19:25;;;;;;;15.10;3.15;;;12.20;99.90;;;;;;5071403;28;20076;-66
2021/10/14 02:21:51;;;;;;;8.57;2.47;;;12.20;99.90;;;;;;5070089;28;20041;-66
2021/10/14 02:24:16;;;;;;;9.27;3.42;;;12.20;99.90;;;;;;5076872;28;20052;-66
2021/10/14 02:26:42;;;;;;;5.32;2.42;;;12.20;99.90;;;;;;5082332;28;20070;-66
2021/10/14 02:29:12;;;;;;;12.70;3.17;;;12.20;99.90;;;;;;5082968;28;20451;-66
2021/10/14 02:31:39;;;;;;;8.95;2.90;;;12.10;99.90;;;;;;5068596;28;20044;-66
2021/10/14 02:34:06;;;;;;;9.32;3.22;;;12.10;99.90;;;;;;5075333;28;20096;-66
2021/10/14 02:36:31;;;;;;;15.88;3.97;;;12.20;99.90;;;;;;5068151;28;20520;-66
2021/10/14 02:38:57;;;;;;;8.35;3.13;;;12.10;99.90;;;;;;5075831;28;20056;-66
2021/10/14 02:41:23;;;;;;;13.35;3.50;;;12.10;99.90;;;;;;5081562;28;20055;-66
2021/10/14 02:43:48;;;;;;;11.02;3.13;;;12.10;99.90;;;;;;5074873;28;20067;-66
2021/10/14 02:46:14;;;;;;;7.63;3.03;;;12.10;99.90;;;;;;5081365;28;20440;-66
2021/10/14 02:48:40;;;;;;;10.82;3.47;;;12.10;99.90;;;;;;5081296;28;20052;-66
2021/10/14 02:51:05;;;;;;;10.55;3.65;;;12.00;99.90;;;;;;5102146;28;20044;-66
2021/10/14 02:53:31;;;;;;;10.00;2.90;;;12.00;99.90;;;;;;5091804;28;20049;-66
2021/10/14 02:55:57;;;;;;;15.10;3.67;;;11.90;99.90;;;;;;5095185;28;20209;-66
2021/10/14 02:58:22;;;;;;;6.75;3.13;;;11.90;99.90;;;;;;5093660;28;20044;-66
2021/10/14 03:00:48;;;;;;;5.88;3.50;;;11.90;99.90;;;;;;5093222;28;20032;-66
2021/10/14 03:03:14;;;;;;;14.68;4.25;;;11.80;99.90;;;;;;5095969;28;20105;-66
2021/10/14 03:05:39;;;;;;;14.20;4.40;;;11.80;99.90;;;;;;5091149;28;20051;-66
2021/10/14 03:08:05;;;;;;;15.48;4.35;;;11.80;99.90;;;;;;5097453;28;20058;-66
2021/10/14 03:10:31;;;;;;;7.32;3.90;;;11.70;99.90;;;;;;5089969;28;20037;-66
2021/10/14 03:12:56;;;;;;;12.77;3.80;;;11.80;99.90;;;;;;5102173;28;20048;-66
2021/10/14 03:15:22;;;;;;;16.98;5.47;;;11.80;99.90;;;;;;5100568;28;20060;-66
2021/10/14 03:17:48;;;;;;;12.32;4.07;;;11.80;99.90;;;;;;5100018;28;20131;-66
2021/10/14 03:20:13;;;;;;;16.98;5.20;;;11.80;99.90;;;;;;5102398;28;20036;-67
2021/10/14 03:22:39;;;;;;;13.32;4.35;;;11.80;99.90;;;;;;5097412;28;20126;-67
2021/10/14 03:25:07;;;;;;;13.85;5.28;;;11.70;99.90;;;;;;5089493;28;20035;-66
2021/10/14 03:27:33;;;;;;;14.30;6.70;;;11.80;99.90;;;;;;5103990;28;20080;-66
2021/10/14 03:29:58;;;;;;;22.13;7.28;;;11.80;99.90;;;;;;5103216;28;20044;-66
2021/10/14 03:32:24;;;;;;;21.73;7.25;;;11.80;99.90;;;;;;5095651;28;20040;-66
2021/10/14 03:34:49;;;;;;;15.55;7.10;;;11.80;99.90;;;;;;5103039;28;20115;-66
2021/10/14 03:37:16;;;;;;;16.35;6.68;;;11.80;99.90;;;;;;5095780;28;20070;-66
2021/10/14 03:39:42;;;;;;;19.30;7.43;;;11.80;99.90;;;;;;5103521;28;20048;-66
2021/10/14 03:42:07;;;;;;;11.15;5.80;;;11.80;99.90;;;;;;5099979;28;20084;-66
2021/10/14 03:44:33;;;;;;;10.23;5.50;;;11.80;99.90;;;;;;5088634;28;20048;-66
2021/10/14 03:46:58;;;;;;;12.77;5.45;;;11.70;99.90;;;;;;5099160;28;20124;-66
2021/10/14 03:49:24;;;;;;;12.90;5.57;;;11.80;99.90;;;;;;5106160;28;20052;-66
2021/10/14 03:51:50;;;;;;;10.45;4.82;;;11.80;99.90;;;;;;5078242;28;20052;-66
2021/10/14 03:54:15;;;;;;;15.95;5.80;;;11.70;99.90;;;;;;5100869;28;20040;-66
2021/10/14 03:56:41;;;;;;;15.73;5.80;;;11.80;99.90;;;;;;5097915;28;20040;-66
2021/10/14 03:59:07;;;;;;;13.55;5.85;;;11.70;99.90;;;;;;5098099;28;20114;-66
2021/10/14 04:01:32;;;;;;;20.40;6.68;;;11.80;99.90;;;;;;5100238;28;20059;-67
2021/10/14 04:03:58;;;;;;;17.02;6.97;;;11.80;99.90;;;;;;5096285;28;20508;-66
2021/10/14 04:06:23;;;;;;;13.55;6.53;;;11.80;99.90;;;;;;5101945;28;20384;-66
2021/10/14 04:08:49;;;;;;;10.77;7.30;;;11.80;99.90;;;;;;5095485;28;20484;-66
2021/10/14 04:11:15;;;;;;;14.07;7.63;;;11.80;99.90;;;;;;5101626;28;20456;-67
2021/10/14 04:13:42;;;;;;;14.85;8.10;;;11.80;99.90;;;;;;5095108;28;20074;-66
2021/10/14 04:16:08;;;;;;;16.27;7.55;;;11.90;99.90;;;;;;5101319;28;20105;-67
2021/10/14 04:18:36;;;;;;;13.50;8.05;;;11.90;99.90;;;;;;5077270;28;20426;-66
2021/10/14 04:21:03;;;;;;;16.02;7.20;;;11.90;99.90;;;;;;5101147;28;20063;-66
2021/10/14 04:23:29;;;;;;;12.63;7.90;;;11.90;99.90;;;;;;5094436;28;20048;-66
2021/10/14 04:25:55;;;;;;;14.13;7.70;;;12.00;99.90;;;;;;5100280;28;20040;-66
2021/10/14 04:28:20;;;;;;;14.23;7.65;;;12.00;99.90;;;;;;5093113;28;20055;-66
2021/10/14 04:30:47;;;;;;;17.30;8.18;;;12.00;99.90;;;;;;5099557;28;20074;-66
2021/10/14 04:33:13;;;;;;;13.68;7.65;;;12.00;99.90;;;;;;5106966;28;20073;-66
2021/10/14 04:35:39;;;;;;;17.95;7.88;;;12.00;99.90;;;;;;5100249;28;20044;-66
2021/10/14 04:38:05;;;;;;;18.15;8.00;;;12.00;99.90;;;;;;5092594;28;20048;-66
2021/10/14 04:40:32;;;;;;;14.25;7.95;;;12.10;99.90;;;;;;5099147;28;20043;-66
2021/10/14 04:42:57;;;;;;;20.92;8.23;;;12.10;99.90;;;;;;5093166;28;20072;-66
2021/10/14 04:45:24;;;;;;;15.68;7.47;;;12.10;99.90;;;;;;5098553;28;20032;-66
2021/10/14 04:47:49;;;;;;;13.57;7.93;;;12.10;99.90;;;;;;5101999;28;20139;-66
2021/10/14 04:50:15;;;;;;;15.07;8.05;;;12.20;99.90;;;;;;5098241;28;20063;-66
2021/10/14 04:52:41;;;;;;;15.32;8.02;;;12.20;99.90;;;;;;5101865;28;20052;-66
2021/10/14 04:55:07;;;;;;;16.20;7.95;;;12.20;99.90;;;;;;5097239;28;20045;-66
2021/10/14 04:57:33;;;;;;;15.98;8.50;;;12.20;99.90;;;;;;5099192;28;20357;-66
2021/10/14 04:59:59;;;;;;;12.05;7.55;;;12.20;99.90;;;;;;5098961;28;20048;-66
2021/10/14 05:02:25;;;;;;;14.43;7.72;;;12.30;99.90;;;;;;5089847;28;20131;-66
2021/10/14 05:04:50;;;;;;;14.38;8.18;;;12.30;99.90;;;;;;5100722;28;20298;-66
2021/10/14 05:07:16;;;;;;;17.52;8.65;;;12.20;99.90;;;;;;5094883;28;20044;-66
2021/10/14 05:09:42;;;;;;;15.50;8.90;;;12.30;99.90;;;;;;5101719;28;20590;-66
2021/10/14 05:12:07;;;;;;;16.05;9.00;;;12.20;99.90;;;;;;5095072;28;20036;-66
2021/10/14 05:14:33;;;;;;;14.65;8.45;;;12.20;99.90;;;;;;5101926;28;20036;-67
2021/10/14 05:16:59;;;;;;;18.25;7.95;;;12.20;99.90;;;;;;5094268;28;20036;-66
2021/10/14 05:19:25;;;;;;;14.90;9.40;;;12.20;99.90;;;;;;5096252;28;20049;-66
2021/10/14 05:21:50;;;;;;;17.55;8.75;;;12.20;99.90;;;;;;5106876;28;20423;-66
2021/10/14 05:24:16;;;;;;;21.67;8.98;;;12.30;99.90;;;;;;5100377;28;20105;-66
2021/10/14 05:26:42;;;;;;;19.30;10.40;;;12.30;99.90;;;;;;5092441;28;20051;-66
2021/10/14 05:29:08;;;;;;;20.70;9.68;;;12.20;99.90;;;;;;5082229;28;20055;-66
2021/10/14 05:31:34;;;;;;;20.17;10.25;;;12.30;99.90;;;;;;5088872;28;20514;-66
2021/10/14 05:34:00;;;;;;;24.48;9.90;;;12.20;99.90;;;;;;5096173;28;20039;-66
2021/10/14 05:36:26;;;;;;;14.77;9.85;;;12.20;99.90;;;;;;5085223;28;20330;-66
2021/10/14 05:38:51;;;;;;;15.27;10.13;;;12.30;99.90;;;;;;5081624;28;20061;-67
2021/10/14 05:41:17;;;;;;;16.73;9.45;;;12.30;99.90;;;;;;5074040;28;20048;-66
2021/10/14 05:43:43;;;;;;;16.45;8.98;;;12.30;99.90;;;;;;5099330;28;20032;-66
2021/10/14 05:46:09;;;;;;;16.52;9.60;;;12.30;99.90;;;;;;5094303;28;20139;-66
2021/10/14 05:48:34;;;;;;;20.48;9.07;;;12.30;99.90;;;;;;5096386;28;20048;-66
2021/10/14 05:51:02;;;;;;;17.52;8.73;;;12.30;99.90;;;;;;5103827;28;20071;-66
2021/10/14 05:53:28;;;;;;;16.73;9.40;;;12.40;99.90;;;;;;5096898;28;20083;-66
2021/10/14 05:55:54;;;;;;;20.33;9.30;;;12.40;99.90;;;;;;5099232;28;20044;-67
2021/10/14 05:58:19;;;;;;;16.20;8.95;;;12.40;99.90;;;;;;5098885;28;20044;-67
2021/10/14 06:00:45;;;;;;;14.50;9.55;;;12.40;99.90;;;;;;5097077;28;20047;-66
2021/10/14 06:03:11;;;;;;;13.93;8.95;;;12.40;99.90;;;;;;5099876;28;20045;-67
2021/10/14 06:05:36;;;;;;;20.88;8.27;;;12.40;99.90;;;;;;5094694;28;20060;-67
2021/10/14 06:08:02;;;;;;;15.88;8.98;;;12.40;99.90;;;;;;5053622;28;20056;-67
2021/10/14 06:10:29;;;;;;;18.55;9.68;;;12.40;99.90;;;;;;5076432;28;20082;-67
2021/10/14 06:12:54;;;;;;;15.27;9.27;;;12.40;99.90;;;;;;5101793;28;20099;-67
2021/10/14 06:15:20;;;;;;;13.88;9.07;;;12.40;99.90;;;;;;5076014;28;20086;-67
2021/10/14 06:17:46;;;;;;;23.27;9.02;;;12.50;99.90;;;;;;5100913;28;20077;-67
2021/10/14 06:20:12;;;;;;;18.85;9.52;;;12.40;99.90;;;;;;5092557;28;20114;-67
2021/10/14 06:22:38;;;;;;;22.38;10.05;;;12.40;99.90;;;;;;5082756;28;20081;-67
2021/10/14 06:25:04;;;;;;;21.00;9.98;;;12.40;99.90;;;;;;5092910;28;20044;-67
2021/10/14 06:27:30;;;;;;;18.52;10.23;;;12.40;99.90;;;;;;5082113;28;20496;-67
2021/10/14 06:29:58;;;;;;;18.92;9.70;;;12.40;99.90;;;;;;5093103;28;20067;-67
2021/10/14 06:32:27;;;;;;;23.23;9.52;;;12.50;99.90;;;;;;5099801;28;20093;-67
2021/10/14 06:34:53;;;;;;;22.30;10.10;;;12.50;99.90;;;;;;5073874;28;20040;-67
2021/10/14 06:37:19;;;;;;;17.45;8.30;;;12.50;99.90;;;;;;5082012;28;20059;-67
2021/10/14 06:39:45;;;;;;;20.77;9.32;;;12.50;99.90;;;;;;5091453;28;20072;-67
2021/10/14 06:42:11;;;;;;;17.55;8.38;;;12.50;99.90;;;;;;5081303;28;20083;-67
2021/10/14 06:44:37;;;;;;;19.23;8.30;;;12.60;99.90;;;;;;5093288;28;20068;-67
2021/10/14 06:47:03;;;;;;;14.43;9.07;;;12.60;99.90;;;;;;5083946;28;20067;-67
2021/10/14 06:49:29;;;;;;;12.98;7.82;;;12.60;99.90;;;;;;5094726;28;20051;-67
2021/10/14 06:51:55;;;;;;;12.43;7.25;;;12.60;99.90;;;;;;5092389;28;20040;-67
2021/10/14 06:54:22;;;;;;;16.70;8.77;;;12.60;99.90;;;;;;5100379;28;20047;-67
2021/10/14 06:56:48;;;;;;;16.83;7.95;;;12.60;99.90;;;;;;5097433;28;20047;-68
2021/10/14 06:59:14;;;;;;;16.08;8.70;;;12.70;99.90;;;;;;5098807;28;20043;-67
2021/10/14 07:01:39;;;;;;;12.93;7.45;;;12.70;99.90;;;;;;5096619;28;20048;-67
2021/10/14 07:04:05;;;;;;;14.75;8.25;;;12.70;99.90;;;;;;5096697;28;20040;-67
2021/10/14 07:06:31;;;;;;;17.25;8.40;;;12.70;99.90;;;;;;5100796;28;20075;-67
2021/10/14 07:08:56;;;;;;;17.70;9.63;;;12.70;99.90;;;;;;5095250;28;20078;-67
2021/10/14 07:11:28;;;;;;;16.50;8.90;;;12.70;99.90;;;;;;5101687;28;20453;-67
2021/10/14 07:13:54;;;;;;;14.68;9.30;;;12.70;99.90;;;;;;5094999;28;20051;-67
2021/10/14 07:16:19;;;;;;;15.45;8.15;;;12.70;99.90;;;;;;5101214;28;20113;-67
2021/10/14 07:18:45;;;;;;;17.38;9.68;;;12.70;99.90;;;;;;5083991;28;20060;-67
2021/10/14 07:21:11;;;;;;;18.50;10.10;;;12.70;99.90;;;;;;5082209;28;20075;-67
2021/10/14 07:23:36;;;;;;;15.55;9.10;;;12.70;99.90;;;;;;5075329;28;20381;-67
2021/10/14 07:26:02;;;;;;;19.00;9.05;;;12.70;99.90;;;;;;5100287;28;20139;-67
2021/10/14 07:28:28;;;;;;;19.95;9.38;;;12.70;99.90;;;;;;5075296;28;20048;-67
2021/10/14 07:30:54;;;;;;;15.35;9.05;;;12.70;99.90;;;;;;5098643;28;20044;-67
2021/10/14 07:33:20;;;;;;;12.98;9.23;;;12.70;99.90;;;;;;5098285;28;20055;-67
2021/10/14 07:35:46;;;;;;;18.92;9.35;;;12.70;99.90;;;;;;5094344;28;20051;-67
2021/10/14 07:38:11;;;;;;;13.48;9.32;;;12.70;99.90;;;;;;5092760;28;20123;-67
2021/10/14 07:40:40;;;;;;;20.50;9.02;;;12.70;99.90;;;;;;5099802;28;20048;-67
2021/10/14 07:43:12;;;;;;;16.17;9.45;;;12.70;99.90;;;;;;5092745;28;20059;-67
2021/10/14 07:45:38;;;;;;;14.88;9.35;;;12.70;99.90;;;;;;5099523;28;20075;-67
2021/10/14 07:48:04;;;;;;;12.63;8.48;;;12.80;99.90;;;;;;5092866;28;20048;-67
2021/10/14 07:50:30;;;;;;;16.50;9.10;;;12.70;99.90;;;;;;5098568;28;20044;-67
2021/10/14 07:52:56;;;;;;;12.50;8.88;;;12.70;99.90;;;;;;5102667;28;20467;-68
2021/10/14 07:55:22;;;;;;;15.90;8.95;;;12.70;99.90;;;;;;5077180;28;20059;-68
2021/10/14 07:57:47;;;;;;;14.27;9.88;;;12.70;99.90;;;;;;5101666;28;20079;-67
2021/10/14 08:00:13;;;;;;;12.95;9.38;;;12.70;99.90;;;;;;5097558;28;20040;-68
2021/10/14 08:02:39;;;;;;;11.23;9.60;;;12.70;99.90;;;;;;5081259;28;20134;-68
2021/10/14 08:05:06;;;;;;;9.85;8.23;;;12.70;99.90;;;;;;5099562;28;20040;-67
2021/10/14 08:07:31;;;;;;;15.15;9.50;;;12.80;99.90;;;;;;5097290;28;20450;-67
2021/10/14 08:09:57;;;;;;;16.50;9.35;;;12.80;99.90;;;;;;5100619;28;20048;-67
2021/10/14 08:12:23;;;;;;;17.02;9.32;;;12.70;99.90;;;;;;5095532;28;20044;-67
2021/10/14 08:14:49;;;;;;;17.25;9.68;;;12.70;99.90;;;;;;5084155;28;20044;-67
2021/10/14 08:17:15;;;;;;;15.50;8.23;;;12.70;99.90;;;;;;5095093;28;20040;-67
2021/10/14 08:19:41;;;;;;;14.25;8.60;;;12.70;99.90;;;;;;5100447;28;20066;-67
2021/10/14 08:22:07;;;;;;;11.93;8.55;;;12.90;99.90;;;;;;5100060;28;20097;-67
2021/10/14 08:24:35;;;;;;;12.82;8.70;;;12.80;99.90;;;;;;5100843;28;20419;-67
2021/10/14 08:27:02;;;;;;;12.38;8.30;;;12.80;99.90;;;;;;5096832;28;20073;-67
2021/10/14 08:29:28;;;;;;;10.55;7.47;;;12.90;99.90;;;;;;5104787;28;20069;-67
2021/10/14 08:31:56;;;;;;;14.93;7.82;;;12.90;99.90;;;;;;5097066;28;20036;-67
2021/10/14 08:34:22;;;;;;;16.45;7.95;;;12.90;99.90;;;;;;5104641;28;20051;-67
2021/10/14 08:36:48;;;;;;;12.15;7.82;;;13.00;99.90;;;;;;5079218;28;20075;-67
2021/10/14 08:39:13;;;;;;;11.35;6.97;;;13.00;99.90;;;;;;5104499;28;20040;-68
2021/10/14 08:41:40;;;;;;;12.40;5.93;;;13.00;99.90;;;;;;5096436;28;20047;-68
2021/10/14 08:44:06;;;;;;;11.93;7.13;;;13.10;99.90;;;;;;5085487;28;20079;-68
2021/10/14 08:46:32;;;;;;;9.25;4.40;;;13.10;99.90;;;;;;5078309;28;20550;-67
2021/10/14 08:48:59;;;;;;;10.73;4.90;;;13.10;99.90;;;;;;5103879;28;20077;-68
2021/10/14 08:51:25;;;;;;;9.90;4.60;;;13.20;99.90;;;;;;5097467;28;20482;-68
2021/10/14 08:53:51;;;;;;;7.05;4.47;;;13.30;99.90;;;;;;5094421;28;20048;-68
2021/10/14 08:56:16;;;;;;;15.20;4.70;;;13.30;99.90;;;;;;5087606;28;20044;-68
2021/10/14 08:58:42;;;;;;;9.32;4.38;;;13.40;99.90;;;;;;5100287;28;20112;-67
2021/10/14 09:01:11;;;;;;;6.78;3.63;;;13.50;99.90;;;;;;5084437;28;20458;-68
2021/10/14 09:03:45;;;;;;;12.10;4.38;;;13.50;99.90;;;;;;5102010;28;20052;-68
2021/10/14 09:06:12;;;;;;;7.47;4.35;;;13.50;99.90;;;;;;5103812;28;20065;-68
2021/10/14 09:08:48;;;;;;;10.05;4.60;;;13.50;99.90;;;;;;5101863;28;20096;-68
2021/10/14 09:11:28;;;;;;;10.63;5.10;;;13.60;99.90;;;;;;5085516;28;20048;-68
2021/10/14 09:13:57;;;;;;;7.88;4.40;;;13.50;99.90;;;;;;5082042;28;20048;-68
2021/10/14 09:16:29;;;;;;;5.88;4.05;;;13.60;99.90;;;;;;5103414;28;20106;-68
2021/10/14 09:19:08;;;;;;;8.73;4.38;;;13.50;99.90;;;;;;5100946;28;20129;-68
2021/10/14 09:21:34;;;;;;;12.15;4.95;;;13.50;99.90;;;;;;5086107;28;20036;-68
2021/10/14 09:23:59;;;;;;;10.80;5.82;;;13.60;99.90;;;;;;5100678;28;20097;-68
2021/10/14 09:26:30;;;;;;;11.27;4.10;;;13.60;99.90;;;;;;5101318;28;20087;-68
2021/10/14 09:29:13;;;;;;;8.35;4.70;;;13.60;99.90;;;;;;5101876;28;20040;-68
2021/10/14 09:31:46;;;;;;;11.82;4.85;;;13.60;99.90;;;;;;5101201;28;20036;-68
2021/10/14 09:34:25;;;;;;;9.65;5.03;;;13.60;99.90;;;;;;5100238;28;20036;-68
2021/10/14 09:36:51;;;;;;;15.27;4.38;;;13.60;99.90;;;;;;5084346;28;20131;-68
2021/10/14 09:39:17;;;;;;;9.77;4.50;;;13.70;99.90;;;;;;5100111;28;20044;-68
2021/10/14 09:41:43;;;;;;;11.02;5.18;;;13.70;99.90;;;;;;5101743;28;20043;-68
2021/10/14 09:44:15;;;;;;;8.95;4.78;;;13.70;99.90;;;;;;5101854;28;20045;-68
2021/10/14 09:46:50;;;;;;;9.30;4.63;;;13.70;99.90;;;;;;5099584;28;20055;-68
2021/10/14 09:49:30;;;;;;;11.05;5.35;;;13.80;99.90;;;;;;5101342;28;20107;-68
2021/10/14 09:52:02;;;;;;;10.15;5.57;;;13.80;99.90;;;;;;5097489;28;20040;-68
2021/10/14 09:54:28;;;;;;;11.13;5.65;;;13.80;99.90;;;;;;5085655;28;20051;-68
2021/10/14 09:56:55;;;;;;;8.37;5.53;;;13.90;99.90;;;;;;5093306;28;20040;-68
2021/10/14 09:59:21;;;;;;;8.90;5.80;;;13.90;99.90;;;;;;5084563;28;20044;-68
2021/10/14 10:01:49;;;;;;;11.27;5.78;;;14.00;99.90;;;;;;5096935;28;20051;-68
2021/10/14 10:04:16;;;;;;;7.32;5.32;;;14.00;99.90;;;;;;5099966;28;20056;-67
2021/10/14 10:06:42;;;;;;;11.50;6.18;;;14.00;99.90;;;;;;5092806;28;20044;-68
2021/10/14 10:09:15;;;;;;;9.85;6.35;;;14.10;99.90;;;;;;5099687;28;20092;-67
2021/10/14 10:11:45;;;;;;;8.57;5.30;;;14.10;99.90;;;;;;5092302;28;20044;-67
2021/10/14 10:14:11;;;;;;;13.98;7.05;;;14.20;99.90;;;;;;5099304;28;20040;-67
2021/10/14 10:16:37;;;;;;;10.18;6.47;;;14.20;99.90;;;;;;5091327;28;20072;-67
2021/10/14 10:19:06;;;;;;;10.90;6.97;;;14.20;99.90;;;;;;5098071;28;20114;-68
2021/10/14 10:21:31;;;;;;;7.25;5.90;;;14.30;99.90;;;;;;5072553;28;20104;-67
2021/10/14 10:24:02;;;;;;;15.63;5.97;;;14.30;99.90;;;;;;5097851;28;20074;-67
2021/10/14 10:26:33;;;;;;;10.77;5.80;;;14.30;99.90;;;;;;5090055;28;20032;-67
2021/10/14 10:29:02;;;;;;;9.93;5.28;;;14.30;99.90;;;;;;5097579;28;20048;-67
2021/10/14 10:31:46;;;;;;;16.67;5.65;;;14.30;99.90;;;;;;5085897;28;20051;-67
2021/10/14 10:34:32;;;;;;;8.35;5.35;;;14.30;99.90;;;;;;5092745;28;20491;-67
2021/10/14 10:37:26;;;;;;;8.38;5.57;;;14.20;99.90;;;;;;5091131;28;20074;-67
2021/10/14 10:40:02;;;;;;;7.68;4.70;;;14.30;99.90;;;;;;5081431;28;21607;-67
2021/10/14 10:42:56;;;;;;;10.90;4.88;;;14.20;99.90;;;;;;5101846;28;20040;-67
2021/10/14 10:45:24;;;;;;;7.85;4.05;;;14.30;99.90;;;;;;5103000;28;20054;-67
2021/10/14 10:47:59;;;;;;;8.32;4.50;;;14.30;99.90;;;;;;5098663;28;20036;-67
2021/10/14 10:50:25;;;;;;;8.43;4.30;;;14.40;99.90;;;;;;5102103;28;20052;-67
2021/10/14 10:53:06;;;;;;;7.13;4.22;;;14.40;99.90;;;;;;5099107;28;20097;-67
2021/10/14 10:55:31;;;;;;;8.18;4.05;;;14.40;99.90;;;;;;5093638;28;20048;-67
2021/10/14 10:57:57;;;;;;;9.27;4.00;;;14.40;99.90;;;;;;5099225;28;20045;-67
2021/10/14 11:00:24;;;;;;;8.52;3.05;;;14.50;99.90;;;;;;5092723;28;20090;-67
2021/10/14 11:03:09;;;;;;;6.43;3.20;;;14.40;99.90;;;;;;5099746;28;20041;-67
2021/10/14 11:05:47;;;;;;;8.40;2.67;;;14.40;99.90;;;;;;5092799;28;20037;-67
2021/10/14 11:08:19;;;;;;;5.18;2.88;;;14.40;99.90;;;;;;5085537;28;20064;-67
2021/10/14 11:11:02;;;;;;;9.80;3.45;;;14.40;99.90;;;;;;5073779;28;20111;-67
2021/10/14 11:13:34;;;;;;;6.10;2.55;;;14.50;99.90;;;;;;5096736;28;20045;-67
2021/10/14 11:16:00;;;;;;;11.05;3.60;;;14.40;99.90;;;;;;5093301;28;20041;-67
2021/10/14 11:18:28;;;;;;;3.75;2.25;;;14.50;99.90;;;;;;5097946;28;20496;-67
2021/10/14 11:20:57;;;;;;;5.78;2.33;;;14.60;99.90;;;;;;5092181;28;20154;-67
2021/10/14 11:23:28;;;;;;;3.33;2.20;;;14.50;99.90;;;;;;5098626;28;20032;-68
2021/10/14 11:26:13;;;;;;;10.68;2.42;;;14.60;99.90;;;;;;5091721;28;20067;-68
2021/10/14 11:28:58;;;;;;;8.63;2.65;;;14.60;99.90;;;;;;5084721;28;20072;-67
2021/10/14 11:31:31;;;;;;;9.43;2.80;;;14.60;99.90;;;;;;5093568;28;20107;-67
2021/10/14 11:34:14;;;;;;;4.97;2.65;;;14.60;99.90;;;;;;5095321;28;20048;-68
2021/10/14 11:37:09;;;;;;;6.90;2.95;;;14.60;99.90;;;;;;5094860;28;20043;-67
2021/10/14 11:39:44;;;;;;;6.15;2.40;;;14.70;99.90;;;;;;5090452;28;20055;-67
2021/10/14 11:42:13;;;;;;;8.25;2.60;;;14.70;99.90;;;;;;5092697;28;20039;-68
2021/10/14 11:44:44;;;;;;;5.47;2.47;;;14.70;99.90;;;;;;5090759;28;20048;-68
2021/10/14 11:47:15;;;;;;;12.73;3.25;;;14.80;99.90;;;;;;5089816;28;20040;-68
2021/10/14 11:49:42;;;;;;;5.03;2.50;;;14.90;99.90;;;;;;5090730;28;20048;-67
2021/10/14 11:52:09;;;;;;;6.90;2.70;;;14.90;99.90;;;;;;5091534;28;20123;-68
2021/10/14 11:54:36;;;;;;;10.65;3.05;;;14.90;99.90;;;;;;5099529;28;20040;-68
2021/10/14 11:57:04;;;;;;;9.20;3.05;;;15.10;99.90;;;;;;5092986;28;20178;-68
2021/10/14 11:59:30;;;;;;;3.90;2.42;;;15.20;99.90;;;;;;5098981;28;20044;-67
2021/10/14 12:02:14;;;;;;;11.82;3.35;;;15.30;99.90;;;;;;5096894;28;20052;-67
2021/10/14 12:04:47;;;;;;;7.38;3.00;;;15.40;99.90;;;;;;5094268;28;20080;-67
2021/10/14 12:07:24;;;;;;;6.38;2.42;;;15.40;99.90;;;;;;5096846;28;20059;-67
2021/10/14 12:09:50;;;;;;;11.80;3.67;;;15.20;99.90;;;;;;5093970;28;20055;-67
2021/10/14 12:12:22;;;;;;;7.90;2.90;;;15.30;99.90;;;;;;5097101;28;20043;-67
2021/10/14 12:15:05;;;;;;;7.47;3.08;;;15.10;99.90;;;;;;5087869;28;20054;-67
2021/10/14 12:17:37;;;;;;;10.68;3.17;;;15.10;99.90;;;;;;5095502;28;20032;-67
2021/10/14 12:20:14;;;;;;;4.50;3.17;;;15.10;99.90;;;;;;5094019;28;20113;-67
2021/10/14 12:22:43;;;;;;;10.13;3.55;;;15.20;99.90;;;;;;5094650;28;20048;-67
2021/10/14 12:25:09;;;;;;;8.25;3.17;;;15.20;99.90;;;;;;5101764;28;20044;-67
2021/10/14 12:27:50;;;;;;;8.88;3.95;;;15.40;99.90;;;;;;5096341;28;20063;-67
2021/10/14 12:30:37;;;;;;;10.20;3.50;;;15.30;99.90;;;;;;5072477;28;20052;-67
2021/10/14 12:33:12;;;;;;;5.95;3.00;;;15.10;99.90;;;;;;5102600;28;20055;-67
2021/10/14 12:36:00;;;;;;;13.75;3.88;;;15.10;99.90;;;;;;5099739;28;20055;-67
2021/10/14 12:38:40;;;;;;;6.45;3.97;;;15.10;99.90;;;;;;5094473;28;20100;-67
2021/10/14 12:41:10;;;;;;;13.52;4.35;;;15.30;99.90;;;;;;5100834;28;20055;-67
2021/10/14 12:43:39;;;;;;;6.80;4.30;;;15.40;99.90;;;;;;5093593;28;20032;-67